• Join FlightAware (Why Join?)
  • Login
  • US Flag GB Flag 
13:00 EDT


 

Airport Tracker/Info


-or-


 

Live Flight TrackerFlight Track Log ✈ AFL150 ✈ 06-Oct-2013 ✈ UUEE / SVO - MUHA / HAV

Flight Track Log - Related Links

Times and Time Zones

All times are in EDT time to prevent confusion due to time zone crossing. See the AFL150 flight status page for this flight to view local times or setup timezone preferences in your user account.

Time Position Orientation Groundspeed Altitude Reporting Facility
EDT Latitude Longitude Course Direction KTS MPH feet Rate Location/Type
11:08 61.1846 -29.0700 307° West  Level Estimated
11:09 61.1405 -29.2988 248° West  Level Estimated
11:10 61.0960 -29.5272 248° West  Level Estimated
11:11 61.0511 -29.7549 248° West  Level Estimated
11:12 61.0059 -29.9820 248° West  Level Estimated
11:13 60.9602 -30.2085 248° West  Level Estimated
11:14 60.9142 -30.4343 247° West  Level Estimated
11:15 60.8678 -30.6594 247° West  Level Estimated
11:16 60.8211 -30.8839 247° West  Level Estimated
11:17 60.7739 -31.1077 247° West  Level Estimated
11:18 60.7264 -31.3309 247° West  Level Estimated
11:19 60.6785 -31.5534 246° West  Level Estimated
11:20 60.6303 -31.7752 246° West  Level Estimated
11:21 60.5817 -31.9964 246° West  Level Estimated
11:22 60.5327 -32.2169 246° West  Level Estimated
11:23 60.4833 -32.4368 246° West  Level Estimated
11:24 60.4336 -32.6559 245° Southwest  Level Estimated
11:25 60.3836 -32.8745 245° Southwest  Level Estimated
11:26 60.3331 -33.0923 245° Southwest  Level Estimated
11:27 60.2824 -33.3094 245° Southwest  Level Estimated
11:28 60.2312 -33.5259 245° Southwest  Level Estimated
11:29 60.1798 -33.7417 244° Southwest  Level Estimated
11:30 60.1279 -33.9568 244° Southwest  Level Estimated
11:31 60.0757 -34.1713 244° Southwest  Level Estimated
11:32 60.0232 -34.3850 244° Southwest  Level Estimated
11:33 59.9704 -34.5981 244° Southwest  Level Estimated
11:34 59.9171 -34.8105 244° Southwest  Level Estimated
11:35 59.8636 -35.0222 243° Southwest  Level Estimated
11:36 59.8097 -35.2333 243° Southwest  Level Estimated
11:37 59.7555 -35.4436 243° Southwest  Level Estimated
11:38 59.7009 -35.6533 243° Southwest  Level Estimated
11:39 59.6460 -35.8623 243° Southwest  Level Estimated
11:40 59.5908 -36.0706 242° Southwest  Level Estimated
11:41 59.5353 -36.2782 242° Southwest  Level Estimated
11:42 59.4794 -36.4851 242° Southwest  Level Estimated
11:43 59.4232 -36.6914 242° Southwest  Level Estimated
11:44 59.3666 -36.8969 242° Southwest  Level Estimated
11:45 59.3098 -37.1018 242° Southwest  Level Estimated
11:46 59.2526 -37.3060 241° Southwest  Level Estimated
11:47 59.1951 -37.5095 241° Southwest  Level Estimated
11:48 59.1373 -37.7123 241° Southwest  Level Estimated
11:49 59.0792 -37.9145 241° Southwest  Level Estimated
11:50 59.0207 -38.1159 241° Southwest  Level Estimated
11:51 58.9620 -38.3167 240° Southwest  Level Estimated
11:52 58.9029 -38.5168 240° Southwest  Level Estimated
11:53 58.8436 -38.7161 240° Southwest  Level Estimated
11:54 58.7839 -38.9148 240° Southwest  Level Estimated
11:55 58.7239 -39.1129 240° Southwest  Level Estimated
11:56 58.6636 -39.3102 240° Southwest  Level Estimated
11:57 58.6030 -39.5069 239° Southwest  Level Estimated
11:58 58.5422 -39.7029 239° Southwest  Level Estimated
11:59 58.4810 -39.8982 239° Southwest  Level Estimated
12:00 58.4195 -40.0928 239° Southwest  Level Estimated
12:01 58.3577 -40.2867 239° Southwest  Level Estimated
12:02 58.2957 -40.4800 239° Southwest  Level Estimated
12:03 58.2333 -40.6725 238° Southwest  Level Estimated
12:04 58.1707 -40.8644 238° Southwest  Level Estimated
12:05 58.1078 -41.0557 238° Southwest  Level Estimated
12:06 58.0446 -41.2462 238° Southwest  Level Estimated
12:07 57.9810 -41.4361 238° Southwest  Level Estimated
12:08 57.9173 -41.6253 238° Southwest  Level Estimated
12:09 57.8532 -41.8138 237° Southwest  Level Estimated
12:10 57.7889 -42.0017 237° Southwest  Level Estimated
12:11 57.7243 -42.1889 237° Southwest  Level Estimated
12:12 57.6594 -42.3754 237° Southwest  Level Estimated
12:13 57.5942 -42.5612 237° Southwest  Level Estimated
12:14 57.5288 -42.7464 237° Southwest  Level Estimated
12:15 57.4631 -42.9309 237° Southwest  Level Estimated
12:16 57.3971 -43.1148 236° Southwest  Level Estimated
12:17 57.3309 -43.2980 236° Southwest  Level Estimated
12:18 57.2644 -43.4805 236° Southwest  Level Estimated
12:19 57.1976 -43.6624 236° Southwest  Level Estimated
12:20 57.1306 -43.8436 236° Southwest  Level Estimated
12:21 57.0633 -44.0242 236° Southwest  Level Estimated
12:22 56.9957 -44.2041 235° Southwest  Level Estimated
12:23 56.9279 -44.3834 235° Southwest  Level Estimated
12:24 56.8599 -44.5620 235° Southwest  Level Estimated
12:25 56.7915 -44.7399 235° Southwest  Level Estimated
12:26 56.7230 -44.9172 235° Southwest  Level Estimated
12:27 56.6542 -45.0939 235° Southwest  Level Estimated
12:28 56.5851 -45.2699 235° Southwest  Level Estimated
12:29 56.5158 -45.4452 234° Southwest  Level Estimated
12:30 56.4462 -45.6200 234° Southwest  Level Estimated
12:31 56.3764 -45.7941 234° Southwest  Level Estimated
12:32 56.3064 -45.9675 234° Southwest  Level Estimated
12:33 56.2361 -46.1403 234° Southwest  Level Estimated
12:34 56.1655 -46.3125 234° Southwest  Level Estimated
12:35 56.0948 -46.4841 234° Southwest  Level Estimated
12:36 56.0238 -46.6550 233° Southwest  Level Estimated
12:37 55.9525 -46.8253 233° Southwest  Level Estimated
12:38 55.8811 -46.9949 233° Southwest  Level Estimated
12:39 55.8093 -47.1640 233° Southwest  Level Estimated
12:40 55.7374 -47.3324 233° Southwest  Level Estimated
12:41 55.6652 -47.5002 233° Southwest  Level Estimated
12:42 55.5928 -47.6673 233° Southwest  Level Estimated
12:43 55.5202 -47.8339 232° Southwest  Level Estimated
12:44 55.4474 -47.9998 232° Southwest  Level Estimated
12:45 55.3743 -48.1652 232° Southwest  Level Estimated
12:46 55.3010 -48.3299 232° Southwest  Level Estimated
12:47 55.2275 -48.4940 232° Southwest  Level Estimated
12:48 55.1538 -48.6575 232° Southwest  Level Estimated
12:49 55.0798 -48.8204 232° Southwest  Level Estimated
12:50 55.0056 -48.9827 231° Southwest  Level Estimated
12:51 54.9313 -49.1444 231° Southwest  Level Estimated
12:52 54.8567 -49.3055 231° Southwest  Level Estimated
12:53 54.7818 -49.4660 231° Southwest  Level Estimated
12:54 54.7068 -49.6259 231° Southwest  Level Estimated
12:55 54.6316 -49.7853 231° Southwest  Level Estimated
12:56 54.5562 -49.9440 231° Southwest  Level Estimated
12:57 54.4805 -50.1021 231° Southwest  Level Estimated
12:58 54.4047 -50.2597 230° Southwest  Level Estimated
12:59 54.3286 -50.4167 230° Southwest  Level Estimated
13:00 54.2523 -50.5731 230° Southwest  Level Estimated
13:01 54.1759 -50.7289 230° Southwest  Level Estimated
13:02 54.0992 -50.8841 230° Southwest  Level Estimated
13:03 54.0224 -51.0388 230° Southwest  Level Estimated
13:04 53.9453 -51.1929 230° Southwest  Level Estimated
13:05 53.8680 -51.3464 230° Southwest  Level Estimated
13:06 53.7906 -51.4994 229° Southwest  Level Estimated
13:07 53.7130 -51.6518 229° Southwest  Level Estimated
13:08 53.6351 -51.8036 229° Southwest  Level Estimated
13:09 53.5571 -51.9549 229° Southwest  Level Estimated
13:10 53.4789 -52.1056 229° Southwest  Level Estimated
13:11 53.4005 -52.2558 229° Southwest  Level Estimated
13:12 53.3219 -52.4054 229° Southwest  Level Estimated
13:13 53.2431 -52.5545 229° Southwest  Level Estimated
13:14 53.1641 -52.7030 228° Southwest  Level Estimated
13:15 53.0840 -52.8527 228° Southwest  Level Estimated
13:16 53.0037 -53.0019 228° Southwest  Level Estimated
13:17 52.9232 -53.1506 228° Southwest  Level Estimated
13:17 59.3333 -56.0167 228° Southwest 440 506 36,000  Level Gander Center
13:18 52.8426 -53.2987 228° Southwest  Level Estimated
13:18 59.2667 -56.2333 239° Southwest 440 506 36,000  Level Gander Center
13:19 52.7617 -53.4462 228° Southwest  Level Estimated
13:19 59.1833 -56.4000 226° Southwest 430 495 36,000  Level Gander Center
13:20 52.6807 -53.5932 228° Southwest  Level Estimated
13:20 59.0833 -56.5500 218° Southwest 430 495 36,000  Level Gander Center
13:21 52.5994 -53.7397 228° Southwest  Level Estimated
13:21 58.9667 -56.6667 207° Southwest 440 506 36,000  Level Gander Center
13:22 52.5180 -53.8856 228° Southwest  Level Estimated
13:22 58.8833 -56.8000 220° Southwest 450 518 36,000  Level Gander Center
13:23 58.7833 -56.9500 218° Southwest 450 518 36,000  Level Gander Center
13:24 58.6667 -57.0833 211° Southwest 450 518 36,000  Level Gander Center
13:25 58.5500 -57.2000 208° Southwest 450 518 36,000  Level Gander Center
13:26 58.4833 -57.3333 226° Southwest 440 506 36,000  Level Gander Center
13:27 58.3500 -57.4667 208° Southwest 450 518 36,000  Level Gander Center
13:28 58.2500 -57.6000 215° Southwest 450 518 36,000  Level Gander Center
13:29 58.1500 -57.7500 218° Southwest 450 518 36,000  Level Gander Center
13:30 58.0500 -57.8500 208° Southwest 450 518 36,000  Level Gander Center
13:31 57.9333 -57.9833 211° Southwest 450 518 36,000  Level Gander Center
13:32 57.8333 -58.1167 215° Southwest 450 518 36,000  Level Gander Center
13:33 57.7167 -58.2500 211° Southwest 450 518 36,000  Level Gander Center
13:34 57.6167 -58.3833 216° Southwest 450 518 36,000  Level Gander Center
13:35 57.5000 -58.5167 212° Southwest 450 518 36,000  Level Gander Center
13:36 57.4167 -58.6167 213° Southwest 450 518 36,000  Level Gander Center
13:37 57.3000 -58.7500 212° Southwest 450 518 36,000  Level Gander Center
13:38 57.2000 -58.8833 216° Southwest 460 529 36,000  Level Gander Center
13:39 57.0833 -59.0167 212° Southwest 460 529 36,000  Level Gander Center
13:40 56.9833 -59.1333 212° Southwest 460 529 36,000  Level Gander Center
13:41 56.8667 -59.2667 212° Southwest 430 495 36,000  Level Gander Center
13:42 56.7667 -59.3667 209° Southwest 450 518 36,000  Level Gander Center
13:43 56.6500 -59.4833 209° Southwest 460 529 36,000  Level Gander Center
13:44 56.5667 -59.6167 221° Southwest 460 529 36,000  Level Gander Center
13:45 56.4500 -59.7500 212° Southwest 460 529 36,000  Level Gander Center
13:46 56.3333 -59.8667 209° Southwest 460 529 36,000  Level Gander Center
13:47 56.2333 -59.9833 213° Southwest 460 529 36,000  Level Gander Center
13:48 56.1167 -60.1167 213° Southwest 460 529 36,000  Level Gander Center
13:49 56.0167 -60.2333 213° Southwest 460 529 36,000  Level Gander Center
13:50 55.9000 -60.3667 213° Southwest 460 529 36,000  Level Gander Center
13:51 55.7833 -60.4500 202° Southwest 470 541 36,000  Level Gander Center
13:52 55.6833 -60.5667 213° Southwest 460 529 36,000  Level Gander Center
13:53 55.5667 -60.6833 209° Southwest 470 541 36,000  Level Gander Center
13:54 55.4500 -60.8167 213° Southwest 460 529 36,000  Level Gander Center
13:55 55.3333 -60.9333 210° Southwest 460 529 36,000  Level Gander Center
13:56 55.2333 -61.0500 214° Southwest 470 541 36,000  Level Gander Center
13:57 55.1167 -61.1667 210° Southwest 470 541 36,000  Level Gander Center
13:58 55.0000 -61.2833 210° Southwest 470 541 36,000  Level Gander Center
13:59 54.8833 -61.4000 210° Southwest 470 541 36,000  Level Gander Center
14:00 54.7833 -61.5167 214° Southwest 470 541 36,000  Level Gander Center
14:01 54.6667 -61.6000 202° Southwest 470 541 36,000  Level Gander Center
14:02 54.5500 -61.7500 217° Southwest 470 541 36,000  Level Gander Center
14:03 54.4500 -61.8333 206° Southwest 470 541 36,000  Level Gander Center
14:04 54.3167 -61.9667 210° Southwest 480 552 36,000  Level Gander Center
14:05 54.2167 -62.0500 206° Southwest 470 541 36,000  Level Gander Center
14:06 54.1000 -62.2000 217° Southwest 480 552 36,000  Level Gander Center
14:07 53.9833 -62.2833 203° Southwest 480 552 36,000  Level Gander Center
14:08 53.8667 -62.4167 214° Southwest 480 552 36,000  Level Gander Center
14:09 53.7333 -62.5333 207° Southwest 480 552 36,000  Level Gander Center
14:10 53.6167 -62.6333 207° Southwest 480 552 36,000  Level Gander Center
14:11 53.5000 -62.7500 211° Southwest 480 552 36,000  Level Gander Center
14:12 53.4000 -62.8167 202° Southwest 480 552 36,000  Level Gander Center
14:13 53.2667 -62.9667 214° Southwest 480 552 36,000  Level Gander Center
14:14 53.1667 -63.0667 211° Southwest 480 552 36,000  Level Gander Center
14:15 53.0500 -63.1667 207° Southwest 480 552 36,000  Level Gander Center
14:16 52.9333 -63.2833 211° Southwest 480 552 36,000  Level Gander Center
14:17 52.8167 -63.3833 207° Southwest 480 552 36,000  Level Gander Center
14:18 52.6833 -63.4833 204° Southwest 480 552 36,000  Level Gander Center
14:19 52.5667 -63.6000 211° Southwest 490 564 36,000  Level Gander Center
14:20 52.4667 -63.6833 207° Southwest 480 552 36,000  Level Moncton Center
14:21 52.3500 -63.8000 211° Southwest 480 552 36,000  Level Moncton Center
14:22 52.2333 -63.8833 204° Southwest 480 552 36,000  Level Moncton Center
14:23 52.1167 -63.9833 208° Southwest 480 552 36,000  Level Moncton Center
14:24 52.0000 -64.1000 212° Southwest 480 552 36,000  Level Moncton Center
14:25 51.8667 -64.2000 205° Southwest 480 552 36,000  Level Moncton Center
14:26 51.7500 -64.2833 204° Southwest 480 552 36,000  Level Moncton Center
14:27 51.6333 -64.4000 212° Southwest 480 552 36,000  Level Moncton Center
14:28 51.5167 -64.5000 208° Southwest 470 541 36,000  Level Moncton Center
14:29 51.4167 -64.5833 207° Southwest 470 541 36,000  Level Moncton Center
14:30 51.2833 -64.6833 205° Southwest 470 541 36,000  Level Moncton Center
14:31 51.1833 -64.8000 216° Southwest 470 541 36,000  Level Moncton Center
14:32 51.0500 -64.9000 205° Southwest 470 541 36,000  Level Gander Center
14:33 50.9333 -65.0000 208° Southwest 470 541 36,000  Level Gander Center
14:34 50.8167 -65.1000 208° Southwest 470 541 36,000  Level Gander Center
14:35 50.6833 -65.1833 202° Southwest 470 541 36,000  Level Gander Center
14:36 50.5667 -65.2833 209° Southwest 470 541 36,000  Level Gander Center
14:37 50.4500 -65.3833 209° Southwest 480 552 36,000  Level Gander Center
14:38 50.3333 -65.4667 205° Southwest 480 552 36,000  Level Gander Center
14:39 50.2167 -65.5667 209° Southwest 480 552 36,000  Level Gander Center
14:40 50.1000 -65.6500 205° Southwest 480 552 36,000  Level Moncton Center
14:41 49.9833 -65.7500 209° Southwest 480 552 36,000  Level Moncton Center
14:42 49.8667 -65.8333 205° Southwest 470 541 36,000  Level Moncton Center
14:43 49.7667 -65.9333 213° Southwest 470 541 36,000  Level Moncton Center
14:44 49.6333 -66.0333 206° Southwest 470 541 36,000  Level Moncton Center
14:45 49.5333 -66.1000 203° Southwest 470 541 36,000  Level Moncton Center
14:46 49.4167 -66.2000 209° Southwest 470 541 36,000  Level Moncton Center
14:47 49.3000 -66.2667 200° South 460 529 36,000  Level Moncton Center
14:48 49.1667 -66.3667 206° Southwest 460 529 36,000  Level Moncton Center
14:49 49.0500 -66.4667 209° Southwest 460 529 36,000  Level Moncton Center
14:50 48.9500 -66.5333 204° Southwest 460 529 36,000  Level Moncton Center
14:51 48.8167 -66.6333 206° Southwest 460 529 36,000  Level Moncton Center
14:52 48.7167 -66.7000 204° Southwest 460 529 36,000  Level Moncton Center
14:53 48.6000 -66.8000 210° Southwest 460 529 36,000  Level Moncton Center
14:54 48.4833 -66.8667 201° Southwest 460 529 36,000  Level Moncton Center
14:55 48.3500 -66.9667 207° Southwest 460 529 36,000  Level Moncton Center
14:56 48.2333 -67.0667 210° Southwest 460 529 36,000  Level Moncton Center
14:57 48.1167 -67.1333 201° Southwest 460 529 36,000  Level Moncton Center
14:58 48.0167 -67.2333 214° Southwest 460 529 36,000  Level Moncton Center
14:59 47.9000 -67.3000 201° Southwest 470 541 36,000  Level Moncton Center
15:00 47.7833 -67.3833 206° Southwest 460 529 36,000  Level Moncton Center
15:01 47.6667 -67.4833 210° Southwest 460 529 36,000  Level Moncton Center
15:02 47.5333 -67.5500 199° South 460 529 36,000  Level Moncton Center
15:03 47.4333 -67.6333 209° Southwest 460 529 36,000  Level Moncton Center
15:04 47.3167 -67.7333 210° Southwest 460 529 36,000  Level Moncton Center
15:05 47.2000 -67.8000 201° Southwest 460 529 36,000  Level Moncton Center
15:06 47.0833 -67.8833 206° Southwest 460 529 36,000  Level Moncton Center
15:07 46.9500 -67.9500 199° South 460 529 36,000  Level Moncton Center
15:08 46.8333 -68.0500 210° Southwest 460 529 36,000  Level Moncton Center
15:09 46.7167 -68.1167 201° Southwest 470 541 36,000  Level Moncton Center
15:10 46.6000 -68.1667 196° South 480 552 36,000  Level Moncton Center
15:11 46.4667 -68.2167 194° South 480 552 36,000  Level Moncton Center
15:12 46.3500 -68.2833 202° Southwest 480 552 36,000  Level Moncton Center
15:13 46.2167 -68.3167 190° South 470 541 36,000  Level Moncton Center
15:14 46.0833 -68.3833 199° South 480 552 36,000  Level Moncton Center
15:15 45.9500 -68.4167 190° South 470 541 36,000  Level Moncton Center
15:16 45.8333 -68.4833 202° Southwest 470 541 36,000  Level Moncton Center
15:17 45.7167 -68.5167 191° South 470 541 36,000  Level Moncton Center
15:18 45.5833 -68.5833 199° South 470 541 36,000  Level Moncton Center
15:19 45.4500 -68.6500 199° South 470 541 36,000  Level Moncton Center
15:20 45.3333 -68.6833 191° South 470 541 36,000  Level Moncton Center
15:21 45.2000 -68.7500 199° South 470 541 36,000  Level Moncton Center
15:22 45.0667 -68.7833 190° South 470 541 36,000  Level Moncton Center
15:23 44.9333 -68.8333 195° South 480 552 36,000  Level Moncton Center
15:24 44.8167 -68.8833 197° South 470 541 36,000  Level Moncton Center
15:25 44.7000 -68.9667 207° Southwest 470 541 36,000  Level Moncton Center
15:26 44.5833 -69.0500 207° Southwest 460 529 36,000  Level Moncton Center
15:27 44.4667 -69.1000 197° South 460 529 36,000  Level Moncton Center
15:28 44.3667 -69.2000 216° Southwest 460 529 36,000  Level Moncton Center
15:29 44.2500 -69.2833 207° Southwest 460 529 36,000  Level Moncton Center
15:30 44.1333 -69.3667 207° Southwest 460 529 36,000  Level Moncton Center
15:31 44.0167 -69.4167 197° South 460 529 36,000  Level Moncton Center
15:32 43.9000 -69.5000 207° Southwest 450 518 36,000  Level Moncton Center
15:33 43.7833 -69.5833 207° Southwest 450 518 36,000  Level Moncton Center
15:34 43.6833 -69.6667 211° Southwest 450 518 36,000  Level Moncton Center
15:35 43.5667 -69.7667 212° Southwest 430 495 36,000  Level Moncton Center
15:36 43.4833 -69.8833 225° Southwest 450 518 36,000  Level Moncton Center
15:37 43.4000 -69.9667 216° Southwest 440 506 36,000  Level Moncton Center
15:38 43.2833 -70.0667 212° Southwest 460 529 36,000  Level Moncton Center
15:39 43.1833 -70.1667 216° Southwest 450 518 36,000  Level Moncton Center
15:40 43.1000 -70.2833 226° Southwest 450 518 36,000  Level Moncton Center
15:41 42.9833 -70.3833 212° Southwest 450 518 36,000  Level Moncton Center
15:42 42.9000 -70.5167 230° Southwest 450 518 36,000  Level Moncton Center
15:43 42.7833 -70.6167 212° Southwest 450 518 36,000  Level Moncton Center
15:44 42.6833 -70.7167 216° Southwest 450 518 36,000  Level Moncton Center
15:45 42.6000 -70.8167 221° Southwest 450 518 36,000  Level Moncton Center
15:46 42.4989 -70.9336 220° Southwest 456 525 36,000  Level Boston Center
15:47 42.4003 -71.0428 219° Southwest 456 525 36,000  Level Boston Center
15:48 42.3014 -71.1517 219° Southwest 461 531 36,000  Level Boston Center
15:49 42.2025 -71.2603 219° Southwest 461 531 36,000  Level Boston Center
15:50 42.1056 -71.3656 219° Southwest 467 537 36,000  Level Boston Center
15:51 42.0086 -71.4761 220° Southwest 467 537 36,000  Level Boston Center
15:52 41.8950 -71.5894 217° Southwest 467 537 36,000  Level Boston Center
15:53 41.7978 -71.6967 219° Southwest 467 537 36,000  Level Boston Center
15:54 41.6983 -71.8033 219° Southwest 461 531 36,000  Level Boston Center
15:55 41.5925 -71.8989 214° Southwest 461 531 36,000  Level Boston Center
15:56 41.5011 -71.9828 215° Southwest 456 525 36,000  Level Boston Center
15:57 41.3975 -72.0831 216° Southwest 456 525 36,000  Level Boston Center
15:58 41.2933 -72.1775 214° Southwest 456 525 36,000  Level Boston Center
15:59 41.1894 -72.2747 215° Southwest 461 531 36,000  Level Boston Center
16:00 41.0853 -72.3714 215° Southwest 461 531 36,000  Level Boston Center
16:01 40.9792 -72.4647 214° Southwest 466 536 36,000  Level Boston Center
16:02 40.8769 -72.5608 215° Southwest 466 536 36,000  Level Boston Center
16:03 40.7725 -72.6594 216° Southwest 466 536 36,000  Level Boston Center
16:04 40.6661 -72.7467 212° Southwest 466 536 36,000  Level Boston Center
16:05 40.5617 -72.8417 215° Southwest 466 536 36,000  Level Boston Center
16:06 40.4550 -72.9364 214° Southwest 466 536 36,000  Level Boston Center
16:07 40.3461 -73.0308 213° Southwest 466 536 36,000  Level Boston Center
16:08 40.2456 -73.1225 215° Southwest 466 536 36,000  Level Boston Center
16:09 40.1389 -73.2217 215° Southwest 466 536 36,000  Level Boston Center
16:11 39.9556 -73.3856 214° Southwest 473 544 36,000  Level Washington Center
16:12 39.8592 -73.4669 213° Southwest 467 537 36,000  Level Washington Center
16:13 39.7544 -73.5564 213° Southwest 467 537 36,000  Level Washington Center
16:14 39.6478 -73.6511 214° Southwest 467 537 36,000  Level Washington Center
16:15 39.5428 -73.7428 214° Southwest 467 537 36,000  Level Washington Center
16:16 39.4317 -73.8369 213° Southwest 467 537 36,000  Level Washington Center
16:17 39.3311 -73.9281 215° Southwest 462 532 36,000  Level Washington Center
16:18 39.2197 -74.0189 212° Southwest 462 532 36,000  Level Washington Center
16:19 39.1144 -74.1122 215° Southwest 462 532 36,000  Level Washington Center
16:20 39.0053 -74.2053 214° Southwest 467 537 36,000  Level Washington Center
16:21 38.8978 -74.2928 212° Southwest 467 537 36,000  Level Washington Center
16:22 38.7903 -74.3850 214° Southwest 467 537 36,000  Level Washington Center
16:23 38.6828 -74.4775 214° Southwest 467 537 36,000  Level Washington Center
16:24 38.5731 -74.5667 212° Southwest 472 543 36,000  Level Washington Center
16:25 38.4633 -74.6583 213° Southwest 478 550 36,000  Level Washington Center
16:26 38.3536 -74.7497 213° Southwest 478 550 36,000  Level Washington Center
16:27 38.2478 -74.8408 214° Southwest 478 550 36,000  Level Washington Center
16:28 38.1400 -74.9317 214° Southwest 478 550 36,000  Level Washington Center
16:29 38.0300 -75.0225 213° Southwest 478 550 36,000  Level Washington Center
16:30 37.9197 -75.1128 213° Southwest 478 550 36,000  Level Washington Center
16:31 37.8117 -75.2053 214° Southwest 478 550 36,000  Level Washington Center
16:32 37.7036 -75.2925 213° Southwest 478 550 36,000  Level Washington Center
16:33 37.5931 -75.3794 212° Southwest 478 550 36,000  Level Washington Center
16:34 37.4828 -75.4689 213° Southwest 478 550 36,000  Level Washington Center
16:35 37.3744 -75.5578 213° Southwest 478 550 36,000  Level Washington Center
16:36 37.2658 -75.6442 212° Southwest 478 550 36,000  Level Washington Center
16:37 37.1553 -75.7325 212° Southwest 478 550 36,000  Level Washington Center
16:38 37.0444 -75.8156 211° Southwest 478 550 36,000  Level Washington Center
16:39 36.9192 -75.8778 202° Southwest 472 543 36,000  Level Washington Center
16:40 36.8022 -75.9394 203° Southwest 472 543 36,000  Level Washington Center
16:41 36.6644 -76.0089 202° Southwest 472 543 36,000  Level Washington Center
16:42 36.5514 -76.0703 204° Southwest 472 543 36,000  Level Washington Center
16:43 36.4322 -76.1317 203° Southwest 472 543 36,000  Level Washington Center
16:44 36.3131 -76.1925 202° Southwest 472 543 36,000  Level Washington Center
16:45 36.1958 -76.2536 203° Southwest 467 537 36,000  Level Washington Center
16:46 36.0744 -76.3142 202° Southwest 467 537 36,000  Level Washington Center
16:47 35.9531 -76.3747 202° Southwest 467 537 36,000  Level Washington Center
16:48 35.8358 -76.4350 203° Southwest 467 537 36,000  Level Washington Center
16:49 35.7144 -76.4925 201° Southwest 467 537 36,000  Level Washington Center
16:50 35.5931 -76.5525 202° Southwest 472 543 36,000  Level Washington Center
16:51 35.4714 -76.6122 202° Southwest 472 543 36,000  Level Washington Center
16:52 35.3542 -76.6744 203° Southwest 472 543 36,000  Level Washington Center
16:53 35.2347 -76.7364 203° Southwest 472 543 36,000  Level Washington Center
16:54 35.1131 -76.7956 202° Southwest 466 536 36,000  Level Washington Center
16:55 35.0039 -76.8497 202° Southwest 466 536 36,000  Level Washington Center
16:56 34.8864 -76.9114 203° Southwest 466 536 36,000  Level Washington Center
16:57 34.7647 -76.9700 202° Southwest 466 536 36,000  Level Washington Center
16:58 34.6472 -77.0286 202° Southwest 471 542 36,000  Level Washington Center
16:59 34.5256 -77.0894 202° Southwest 471 542 36,000  Level Washington Center
17:00 34.4039 -77.1450 201° Southwest 471 542 36,000  Level Washington Center
17:01 34.1858 -77.2522 202° Southwest 469 540 36,000  Level Jacksonville Center
17:02 34.0633 -77.3103 201° Southwest 469 540 36,000  Level Jacksonville Center
17:03 33.9408 -77.3708 202° Southwest 469 540 36,000  Level Jacksonville Center
17:04 33.8183 -77.4283 201° Southwest 475 547 36,000  Level Jacksonville Center
17:05 33.6914 -77.4886 202° Southwest 485 558 36,000  Level Jacksonville Center
17:06 33.5686 -77.5461 201° Southwest 485 558 36,000  Level Jacksonville Center
17:07 33.4461 -77.6058 202° Southwest 485 558 36,000  Level Jacksonville Center
17:08 33.3211 -77.6653 202° Southwest 485 558 36,000  Level Jacksonville Center
17:09 33.1964 -77.7247 202° Southwest 485 558 36,000  Level Jacksonville Center
17:10 33.0756 -77.7814 201° Southwest 480 552 36,000  Level Jacksonville Center
17:11 32.9486 -77.8406 201° Southwest 480 552 36,000  Level Jacksonville Center
17:12 32.8258 -77.8994 202° Southwest 485 558 36,000  Level Jacksonville Center
17:13 32.6986 -77.9558 200° South 485 558 36,000  Level Jacksonville Center
17:14 32.5736 -78.0144 202° Southwest 485 558 36,000  Level Jacksonville Center
17:15 32.4483 -78.0728 201° Southwest 485 558 36,000  Level Jacksonville Center
17:16 32.3214 -78.1336 202° Southwest 485 558 36,000  Level Jacksonville Center
17:17 32.1981 -78.1889 201° Southwest 485 558 36,000  Level Jacksonville Center
17:18 32.0833 -78.2464 203° Southwest 485 558 36,000  Level Jacksonville Center
17:19 31.9561 -78.3042 201° Southwest 485 558 36,000  Level Jacksonville Center
17:20 31.8331 -78.3617 202° Southwest 491 565 36,000  Level Jacksonville Center
17:21 31.7075 -78.4192 201° Southwest 486 559 36,000  Level Jacksonville Center
17:22 31.5844 -78.4761 202° Southwest 479 551 36,000  Level Jacksonville Center
17:23 31.4589 -78.5308 200° South 484 557 36,000  Level Jacksonville Center
17:24 31.3356 -78.5878 202° Southwest 484 557 36,000  Level Jacksonville Center
17:25 31.2122 -78.6419 201° Southwest 484 557 36,000  Level Jacksonville Center
17:26 31.0847 -78.7033 202° Southwest 484 557 36,000  Level Jacksonville Center
17:27 30.9633 -78.7550 200° South 484 557 36,000  Level Jacksonville Center
17:29 30.7456 -78.8556 202° Southwest 472 543 36,000  Level Miami Center
17:30 30.6178 -78.9111 201° Southwest 480 552 36,000  Level Miami Center
17:31 30.4942 -78.9567 198° South 480 552 36,000  Level Miami Center
17:32 30.3581 -79.0069 198° South 487 560 36,000  Level Miami Center
17:33 30.2383 -79.0572 200° South 487 560 36,000  Level Miami Center
17:34 30.1106 -79.1050 198° South 487 560 36,000  Level Miami Center
17:35 29.9867 -79.1622 202° Southwest 487 560 36,000  Level Miami Center
17:36 29.8586 -79.2097 198° South 482 555 36,000  Level Miami Center
17:37 29.7328 -79.2572 198° South 482 555 36,000  Level Miami Center
17:38 29.6067 -79.3069 199° South 487 560 36,000  Level Miami Center
17:39 29.4786 -79.3542 198° South 487 560 36,000  Level Miami Center
17:40 29.3528 -79.4036 199° South 487 560 36,000  Level Miami Center
17:41 29.2289 -79.4508 198° South 482 555 36,000  Level Miami Center
17:42 29.1006 -79.4975 198° South 482 555 36,000  Level Miami Center
17:43 28.9767 -79.5419 197° South 482 555 36,000  Level Miami Center
17:44 28.8528 -79.5911 199° South 477 549 36,000  Level Miami Center
17:45 28.7267 -79.6378 198° South 477 549 36,000  Level Miami Center
17:46 28.5794 -79.6933 198° South 477 549 36,000  Level Miami Center
17:47 28.4553 -79.7419 199° South 477 549 36,000  Level Miami Center
17:48 28.3250 -79.7858 197° South 477 549 36,000  Level Miami Center
17:49 28.2008 -79.8344 199° South 477 549 36,000  Level Miami Center
17:50 28.0747 -79.8806 198° South 477 549 36,000  Level Miami Center
17:51 27.9528 -79.9267 198° South 477 549 36,000  Level Miami Center
17:52 27.8200 -79.9747 198° South 482 555 36,000  Level Miami Center
17:53 27.6981 -80.0208 199° South 481 554 36,000  Level Miami Center
17:54 27.5717 -80.0686 199° South 481 554 36,000  Level Miami Center
17:55 27.4456 -80.1144 198° South 481 554 36,000  Level Miami Center
17:56 27.3169 -80.1597 197° South 481 554 36,000  Level Miami Center
17:57 27.1906 -80.2075 199° South 481 554 36,000  Level Miami Center
17:58 27.0644 -80.2531 198° South 486 559 36,000  Level Miami Center
17:59 26.9378 -80.3006 198° South 486 559 36,000  Level Miami Center
18:00 26.8094 -80.3481 198° South 486 559 36,000  Level Miami Center
18:01 26.6956 -80.3911 199° South 486 559 36,000  Level Miami Center
18:02 26.5522 -80.4425 198° South 486 559 36,000  Level Miami Center
18:03 26.4364 -80.4853 198° South 486 559 36,000  Level Miami Center
18:04 26.2953 -80.5344 197° South 486 559 36,000  Level Miami Center
18:05 26.1794 -80.5747 197° South 486 559 36,000  Level Miami Center
18:06 26.0647 -80.6450 209° Southwest 486 559 36,000  Level Miami Center
18:07 25.9661 -80.7392 221° Southwest 477 549 36,000  Level Miami Center
18:08 25.8656 -80.8350 221° Southwest 472 543 36,000  Level Miami Center
18:09 25.7669 -80.9264 220° Southwest 472 543 36,000  Level Miami Center
18:10 25.6556 -81.0264 219° Southwest 477 549 36,000  Level Miami Center
18:11 25.5569 -81.1172 220° Southwest 471 542 36,000  Level Miami Center
18:12 25.4558 -81.2103 220° Southwest 471 542 36,000  Level Miami Center
18:13 25.3550 -81.3033 220° Southwest 466 536 36,000 -120 Level Miami Center
18:14 25.2561 -81.3939 220° Southwest 466 536 35,800 -600 Descending Miami Center
18:15 25.1553 -81.4842 219° Southwest 466 536 34,800 -960 Descending Miami Center
18:16 25.0564 -81.5744 220° Southwest 466 536 33,900 -1,020 Descending Miami Center
18:17 24.9553 -81.6667 220° Southwest 466 536 32,800 -1,020 Descending Miami Center
18:18 24.8692 -81.7433 219° Southwest 459 528 31,900 -960 Descending Miami Center
18:19 24.7742 -81.8333 221° Southwest 459 528 30,900 -1,140 Descending Miami Center
18:20 24.6708 -81.9253 219° Southwest 448 516 29,700 -1,260 Descending Miami Center
18:21 24.5764 -82.0058 218° Southwest 438 504 28,400 -1,320 Descending Miami Center
18:22 24.4836 -82.0886 219° Southwest 433 498 27,100 -1,320 Descending Miami Center
18:23 24.3953 -82.1669 219° Southwest 433 498 25,800 -1,320 Descending Miami Center
18:24 24.3089 -82.2453 220° Southwest 414 476 24,500 -1,320 Descending Miami Center
18:25 24.2308 -82.3286 224° Southwest 403 464 23,200 -1,260 Descending Miami Center
18:26 24.1428 -82.3931 214° Southwest 391 450 22,000 -1,260 Descending Miami Center
18:27 24.0628 -82.4667 220° Southwest 386 444 20,700 -1,260 Descending Miami Center
18:28 23.9769 -82.5242 211° Southwest 381 438 19,500 -1,200 Descending Miami Center
18:30 23.8430 -82.4981 170° South  Level FlightAware Approximate
18:37 22.9961 -82.4000 180° South  Level FlightAware Approximate
18:38 22.9891 -82.4091 180° South  Level Estimated
18:39 22.9891 -82.4091 180° South  Level Estimated
18:40 22.9891 -82.4091 180° South  Level Estimated
18:41 22.9891 -82.4091 180° South  Level Estimated
18:42 22.9891 -82.4091 180° South  Level Estimated
18:43 22.9891 -82.4091 180° South  Level Estimated
18:44 22.9891 -82.4091 180° South  Level Estimated
18:45 22.9891 -82.4091 180° South  Level Estimated
18:46 22.9891 -82.4091 180° South  Level Estimated
18:47 22.9891 -82.4091 180° South  Level Estimated
18:48 22.9891 -82.4091 180° South  Level Estimated
18:49 22.9891 -82.4091 180° South  Level Estimated
18:50 22.9891 -82.4091 180° South  Level Estimated
18:51 22.9891 -82.4091 180° South  Level Estimated
18:52 22.9891 -82.4091 180° South  Level Estimated
18:53 22.9891 -82.4091 180° South  Level Estimated
18:54 22.9891 -82.4091 180° South  Level Estimated
18:55 22.9891 -82.4091 180° South  Level Estimated
18:56 22.9891 -82.4091 180° South  Level Estimated
18:57 22.9891 -82.4091 180° South  Level Estimated
18:58 22.9891 -82.4091 180° South  Level Estimated